createdAt,value
2023-05-11T00:02:25.851Z,16.90
2023-05-11T00:07:29.303Z,11.48
2023-05-11T00:12:34.795Z,18.15
2023-05-11T00:22:44.048Z,14.75
2023-05-11T00:27:49.589Z,12.85
2023-05-11T00:32:53.725Z,13.27
2023-05-11T00:37:57.097Z,17.05
2023-05-11T00:43:01.783Z,12.80
2023-05-11T00:48:06.177Z,13.88
2023-05-11T00:53:11.487Z,15.73
2023-05-11T00:58:16.812Z,17.52
2023-05-11T01:08:32.248Z,17.83
2023-05-11T01:13:42.833Z,16.65
2023-05-11T01:18:52.698Z,17.73
2023-05-11T01:24:37.368Z,16.25
2023-05-11T01:30:03.607Z,14.02
2023-05-11T01:35:13.811Z,15.25
2023-05-11T01:40:21.612Z,16.73
2023-05-11T01:45:26.900Z,15.70
2023-05-11T02:00:40.724Z,16.67
2023-05-11T02:05:47.446Z,17.40
2023-05-11T02:10:53.315Z,14.70
2023-05-11T02:21:04.690Z,13.93
2023-05-11T02:26:10.648Z,17.08
2023-05-11T02:31:19.541Z,18.45
2023-05-11T02:36:25.966Z,13.38
2023-05-11T02:41:33.287Z,17.90
2023-05-11T02:46:38.773Z,17.60
2023-05-11T02:51:45.858Z,19.65
2023-05-11T02:56:51.295Z,16.63
2023-05-11T03:01:55.444Z,17.92
2023-05-11T03:07:00.866Z,22.00
2023-05-11T03:17:11.421Z,21.25
2023-05-11T03:22:16.608Z,17.90
2023-05-11T03:27:21.949Z,19.92
2023-05-11T03:32:25.669Z,21.17
2023-05-11T03:37:31.779Z,25.08
2023-05-11T03:42:37.653Z,28.75
2023-05-11T03:47:42.948Z,23.05
2023-05-11T03:52:49.149Z,25.55
2023-05-11T03:57:52.934Z,24.27
2023-05-11T04:02:56.512Z,28.63
2023-05-11T04:08:02.553Z,26.42
2023-05-11T04:13:06.191Z,22.20
2023-05-11T04:18:09.853Z,23.45
2023-05-11T04:23:16.983Z,26.50
2023-05-11T04:28:20.580Z,22.25
2023-05-11T04:33:24.851Z,22.95
2023-05-11T04:38:31.018Z,23.75
2023-05-11T04:48:38.135Z,23.45
2023-05-11T04:53:42.864Z,22.58
2023-05-11T04:58:47.017Z,28.83
2023-05-11T05:03:50.819Z,25.13
2023-05-11T05:08:56.092Z,19.73
2023-05-11T05:19:03.094Z,14.95
2023-05-11T05:24:11.409Z,15.65
2023-05-11T05:29:15.063Z,10.93
2023-05-11T05:34:19.296Z,13.37
2023-05-11T05:39:24.968Z,14.63
2023-05-11T05:44:28.635Z,16.00
2023-05-11T05:49:32.525Z,11.65
2023-05-11T05:54:37.795Z,11.37
2023-05-11T05:59:41.319Z,10.90
2023-05-11T06:04:45.935Z,11.48
2023-05-11T06:09:50.780Z,9.35
2023-05-11T06:14:54.164Z,9.52
2023-05-11T06:19:57.580Z,9.35
2023-05-11T06:25:06.750Z,10.50
2023-05-11T06:30:11.373Z,8.07
2023-05-11T06:35:17.162Z,7.68
2023-05-11T06:40:23.827Z,7.03
2023-05-11T06:45:27.255Z,10.85
2023-05-11T06:50:31.466Z,7.03
2023-05-11T06:55:36.204Z,12.75
2023-05-11T07:00:39.722Z,8.23
2023-05-11T07:05:43.072Z,7.65
2023-05-11T07:10:47.911Z,7.43
2023-05-11T07:15:51.722Z,6.75
2023-05-11T07:20:55.033Z,7.40
2023-05-11T07:25:59.699Z,10.32
2023-05-11T07:31:04.637Z,9.77
2023-05-11T07:36:08.564Z,10.63
2023-05-11T07:41:13.316Z,8.77
2023-05-11T07:46:17.048Z,9.75
2023-05-11T07:51:20.829Z,6.53
2023-05-11T07:56:26.630Z,6.30
2023-05-11T08:01:29.988Z,8.40
2023-05-11T08:06:33.313Z,8.93
2023-05-11T08:11:38.096Z,7.30
2023-05-11T08:16:41.714Z,7.05
2023-05-11T08:21:46.887Z,4.95
2023-05-11T08:26:52.040Z,6.40
2023-05-11T08:31:55.574Z,8.77
2023-05-11T08:37:02.028Z,5.17
2023-05-11T08:42:07.806Z,4.85
2023-05-11T08:47:22.496Z,4.53
2023-05-11T08:52:28.032Z,5.95
2023-05-11T08:57:34.749Z,11.80
2023-05-11T09:02:38.907Z,4.45
2023-05-11T09:07:44.380Z,6.32
2023-05-11T09:12:49.534Z,4.47
2023-05-11T09:17:53.045Z,5.10
2023-05-11T09:22:56.534Z,5.13
2023-05-11T09:28:01.325Z,4.75
2023-05-11T09:33:04.903Z,7.28
2023-05-11T09:38:10.040Z,9.18
2023-05-11T09:43:20.085Z,8.13
2023-05-11T09:48:29.610Z,6.07
2023-05-11T09:53:38.718Z,5.80
2023-05-11T09:58:48.489Z,5.57
2023-05-11T10:04:05.823Z,3.17
2023-05-11T10:09:22.570Z,5.70
2023-05-11T10:14:29.337Z,4.28
2023-05-11T10:19:33.472Z,4.78
2023-05-11T10:24:37.456Z,5.03
2023-05-11T10:29:43.589Z,4.65
2023-05-11T10:34:48.277Z,4.90
2023-05-11T10:39:52.262Z,5.15
2023-05-11T10:45:08.004Z,3.80
2023-05-11T10:50:42.991Z,4.80
2023-05-11T10:56:13.441Z,3.28
2023-05-11T11:01:31.037Z,4.32
2023-05-11T11:06:37.073Z,4.13
2023-05-11T11:11:42.667Z,6.40
2023-05-11T11:17:19.943Z,3.97
2023-05-11T11:22:47.600Z,4.75
2023-05-11T11:27:58.600Z,3.92
2023-05-11T11:33:33.750Z,4.22
2023-05-11T11:44:22.188Z,5.72
2023-05-11T11:49:27.580Z,5.55
2023-05-11T11:54:41.261Z,5.50
2023-05-11T11:59:47.918Z,3.97
2023-05-11T12:04:56.842Z,3.97
2023-05-11T12:10:03.952Z,7.13
2023-05-11T12:15:22.046Z,6.88
2023-05-11T12:20:26.046Z,5.72
2023-05-11T12:25:29.419Z,6.23
2023-05-11T12:30:34.649Z,4.35
2023-05-11T12:35:40.420Z,5.50
2023-05-11T12:40:47.937Z,4.40
2023-05-11T12:45:52.907Z,4.40
2023-05-11T12:50:58.405Z,3.95
2023-05-11T12:56:02.164Z,4.13
2023-05-11T13:01:09.638Z,4.60
2023-05-11T13:06:13.880Z,5.03
2023-05-11T13:11:17.812Z,4.00
2023-05-11T13:16:27.460Z,4.60
2023-05-11T13:21:33.441Z,5.60
2023-05-11T13:26:37.254Z,5.50
2023-05-11T13:31:46.475Z,6.33
2023-05-11T13:36:50.338Z,7.38
2023-05-11T13:41:55.917Z,3.15
2023-05-11T13:47:01.660Z,10.55
2023-05-11T13:52:05.784Z,3.78
2023-05-11T13:57:09.368Z,3.58
2023-05-11T14:02:14.632Z,4.38
2023-05-11T14:07:18.110Z,4.90
2023-05-11T14:12:22.192Z,4.30
2023-05-11T14:17:27.022Z,4.47
2023-05-11T14:22:30.987Z,4.07
2023-05-11T14:27:34.370Z,3.67
2023-05-11T14:32:39.145Z,3.37
2023-05-11T14:37:42.510Z,3.58
2023-05-11T14:42:45.841Z,6.33
2023-05-11T14:47:51.040Z,6.03
2023-05-11T14:52:54.855Z,7.38
2023-05-11T14:57:58.249Z,3.78
2023-05-11T15:03:03.147Z,3.90
2023-05-11T15:08:15.336Z,5.15
2023-05-11T15:13:25.605Z,3.50
2023-05-11T15:18:30.504Z,4.05
2023-05-11T15:23:33.926Z,4.78
2023-05-11T15:28:37.317Z,4.50
2023-05-11T15:33:42.044Z,4.78
2023-05-11T15:38:45.447Z,4.20
2023-05-11T15:43:48.842Z,5.00
2023-05-11T15:48:53.457Z,4.85
2023-05-11T15:53:56.841Z,4.60
2023-05-11T15:59:00.330Z,5.20
2023-05-11T16:04:05.506Z,9.30
2023-05-11T16:09:10.128Z,4.03
2023-05-11T16:14:13.601Z,4.55
2023-05-11T16:19:18.394Z,3.85
2023-05-11T16:24:21.788Z,5.53
2023-05-11T16:34:31.866Z,5.60
2023-05-11T16:39:35.748Z,5.90
2023-05-11T16:44:39.495Z,6.07
2023-05-11T16:49:44.426Z,5.75
2023-05-11T16:59:51.986Z,6.10
2023-05-11T17:04:56.831Z,5.47
2023-05-11T17:10:00.484Z,4.90
2023-05-11T17:15:09.588Z,5.28
2023-05-11T17:20:15.818Z,6.35
2023-05-11T17:25:19.435Z,5.18
2023-05-11T17:30:30.054Z,9.13
2023-05-11T17:35:40.915Z,4.80
2023-05-11T17:40:45.003Z,3.97
2023-05-11T17:45:48.370Z,6.57
2023-05-11T17:50:53.580Z,4.53
2023-05-11T17:55:58.582Z,8.07
2023-05-11T18:06:11.605Z,4.72
2023-05-11T18:11:15.019Z,5.70
2023-05-11T18:16:18.451Z,9.40
2023-05-11T18:21:23.477Z,4.00
2023-05-11T18:26:27.038Z,6.60
2023-05-11T18:31:31.049Z,5.68
2023-05-11T18:36:35.818Z,4.65
2023-05-11T18:41:39.247Z,4.85
2023-05-11T18:46:42.792Z,4.65
2023-05-11T18:51:47.603Z,6.35
2023-05-11T18:56:51.345Z,5.53
2023-05-11T19:01:54.721Z,6.32
2023-05-11T19:06:59.616Z,4.55
2023-05-11T19:12:03.857Z,5.35
2023-05-11T19:17:07.231Z,5.22
2023-05-11T19:22:13.215Z,5.07
2023-05-11T19:27:17.315Z,6.15
2023-05-11T19:32:21.884Z,6.73
2023-05-11T19:37:27.145Z,8.15
2023-05-11T19:42:39.532Z,6.07
2023-05-11T19:47:43.318Z,7.18
2023-05-11T19:52:48.143Z,8.68
2023-05-11T19:57:51.982Z,5.13
2023-05-11T20:02:57.338Z,6.22
2023-05-11T20:08:03.071Z,5.55
2023-05-11T20:13:08.101Z,8.40
2023-05-11T20:23:16.776Z,7.60
2023-05-11T20:28:21.483Z,9.65
2023-05-11T20:38:33.299Z,10.07
2023-05-11T20:43:36.647Z,7.30
2023-05-11T20:48:41.750Z,4.78
2023-05-11T20:53:47.616Z,7.00
2023-05-11T20:58:51.384Z,7.03
2023-05-11T21:03:54.710Z,5.45
2023-05-11T21:08:59.534Z,11.45
2023-05-11T21:14:03.407Z,8.23
2023-05-11T21:19:07.142Z,7.63
2023-05-11T21:24:14.429Z,7.03
2023-05-11T21:29:18.225Z,8.10
2023-05-11T21:34:22.415Z,6.65
2023-05-11T21:39:27.408Z,6.17
2023-05-11T21:44:30.884Z,5.53
2023-05-11T21:49:36.348Z,5.18
2023-05-11T21:54:41.058Z,7.40
2023-05-11T21:59:44.683Z,10.20
2023-05-11T22:04:48.091Z,7.60
2023-05-11T22:09:52.887Z,7.50
2023-05-11T22:14:56.573Z,5.45
2023-05-11T22:19:59.902Z,6.47
2023-05-11T22:25:05.962Z,8.63
2023-05-11T22:30:10.617Z,7.47
2023-05-11T22:35:14.365Z,9.02
2023-05-11T22:40:19.605Z,8.40
2023-05-11T22:45:23.242Z,7.55
2023-05-11T22:50:26.793Z,6.50
2023-05-11T22:55:31.991Z,6.45
2023-05-11T23:27:26.663Z,6.43
2023-05-11T23:32:31.160Z,10.10
2023-05-11T23:37:35.773Z,8.98
2023-05-11T23:42:40.719Z,8.93
2023-05-11T23:47:44.231Z,9.10
2023-05-11T23:52:47.888Z,8.45
2023-05-11T23:57:52.775Z,6.15
